Hundvaag 1 weather for Dec 2004
Month no. 210
Obs.
Da.
Temp. Dew Point Precip. Wind
Speed
Wind gusts Cloud cover Press. Humidity Wind dir. Sunny OPT
01.12.2004 7,4   0,5 7,0   0 1010,6 93,0 180,0   57,5 %
02.12.2004 5,6   2,1 5,0   1 1008,5 93,0 135,0 1 60,0 %
03.12.2004 1,4   7,4 5,0   2 1013,0 93,0 135,0   52,5 %
04.12.2004 8,4   7,2 9,0   0 1014,8 93,0 180,0   52,5 %
05.12.2004 8,2   3,0 30,0   0 1008,0 82,0 270,0   40,0 %
06.12.2004 7,2   0,1 9,0   0 1014,3 93,0 180,0   55,0 %
07.12.2004 8,6   0,6 17,0   1 1013,2 82,0 270,0 1 55,0 %
08.12.2004 5,6   3,7 0,0   1 1020,1 91,0   1 60,0 %
09.12.2004 8,9   0,3 12,0   0 1020,0 93,0 180,0   55,0 %
10.12.2004 4,7   0,0 10,0   10 1017,4 87,0 180,0 1 77,5 %
11.12.2004 7,5   7,0 10,0   3 1017,3 87,0 292,5 1 60,0 %
12.12.2004 4,6   0,0 3,0   0 1022,9 96,0 135,0   57,5 %
13.12.2004 8,4   1,4 5,0   0 1021,3 93,0 180,0   60,0 %
14.12.2004 6,4   11,9 18,0   0 1015,2 87,0 180,0   42,5 %
15.12.2004 7,5   33,0 7,0   0 1003,9 100,0 315,0 1 35,0 %
16.12.2004 7,1   4,0 23,0   0 1002,8 81,0 180,0   42,5 %
17.12.2004 6,3   14,0 18,0   0 986,0 76,0 270,0   40,0 %
18.12.2004 4,1   2,7 10,0   0 990,4 77,0 292,5 1 52,5 %
19.12.2004 0,5   3,5 8,0   0 1008,1 87,0 157,5   47,5 %
20.12.2004 1,6   5,5 7,0   0 1010,7 91,0 112,5   50,0 %
21.12.2004 3,3   1,1 13,0   0 1013,2 87,0 180,0   50,0 %
22.12.2004 6,5   19,7 23,0   0 996,7 93,0 202,5   30,0 %
23.12.2004 9,0   13,0 22,0   0 985,9 87,0 270,0   37,5 %
24.12.2004 2,4   2,0 2,0   1 995,4 93,0 270,0   57,5 %
25.12.2004 3,9   1,2 14,0   3 988,1 56,0 90,0   57,5 %
26.12.2004 1,5   3,0 1,0   10 1008,9 69,0   1 77,5 %
27.12.2004 2,2   0,0 10,0   1 1012,1 81,0 135,0   52,5 %
28.12.2004 3,9   9,8 9,0   0 1000,1 87,0 337,5   45,0 %
29.12.2004 2,1   13,5 5,0   0 1004,0 93,0 180,0   42,5 %
30.12.2004 9,2   24,0 16,0   0 1007,9 93,0 225,0   32,5 %
31.12.2004 1,7   4,5 5,0   10 1014,6 93,0 135,0 1 75,0 %
Avrg/Sum 5,3   199,7 10,7   1,4 1007,9 87,3 201,7 9 51,9 %